Time;durP1;ratioP1;P1;durP2;ratioP2;P2;SDS_P1;SDS_P2;PMS_P1;PMS_P2;Temp;Humidity;BMP_temperature;BMP_pressure;BME280_temperature;BME280_humidity;BME280_pressure;Samples;Min_cycle;Max_cycle;Signal;HPM_P1;HPM_P2
2022/07/15 00:01:45;;;;;;;1.43;1.00;;;17.70;91.90;;;;;;6127658;23;20444;-80
2022/07/15 00:04:13;;;;;;;1.47;1.00;;;17.60;92.20;;;;;;6129647;23;20500;-79
2022/07/15 00:06:40;;;;;;;1.47;0.90;;;17.60;92.50;;;;;;6130092;23;20425;-80
2022/07/15 00:09:08;;;;;;;1.47;0.90;;;17.50;91.80;;;;;;6130632;23;20496;-80
2022/07/15 00:11:35;;;;;;;1.43;0.90;;;17.50;92.60;;;;;;6128870;23;20456;-80
2022/07/15 00:14:02;;;;;;;1.47;0.90;;;17.50;92.90;;;;;;6129302;23;20504;-80
2022/07/15 00:16:29;;;;;;;1.40;0.90;;;17.40;93.00;;;;;;6130504;23;20478;-80
2022/07/15 00:18:57;;;;;;;1.50;1.00;;;17.40;93.10;;;;;;6130243;23;20457;-80
2022/07/15 00:21:24;;;;;;;1.47;0.90;;;17.40;93.00;;;;;;6129946;23;20432;-78
2022/07/15 00:23:50;;;;;;;1.50;1.00;;;17.30;93.30;;;;;;6129971;23;20477;-79
2022/07/15 00:26:19;;;;;;;1.47;0.90;;;17.40;93.50;;;;;;6130607;23;20422;-79
2022/07/15 00:28:46;;;;;;;1.43;0.90;;;17.30;94.10;;;;;;6125593;23;20449;-77
2022/07/15 00:31:13;;;;;;;1.47;0.90;;;17.30;94.40;;;;;;6130990;23;20489;-79
2022/07/15 00:33:40;;;;;;;1.50;0.90;;;17.30;94.30;;;;;;6131921;23;20977;-79
2022/07/15 00:36:07;;;;;;;1.50;0.90;;;17.30;94.30;;;;;;6132460;23;20433;-80
2022/07/15 00:38:34;;;;;;;1.47;0.93;;;17.20;94.50;;;;;;6129080;23;20417;-79
2022/07/15 00:41:01;;;;;;;1.50;1.00;;;17.20;94.50;;;;;;6132700;23;20418;-77
2022/07/15 00:43:29;;;;;;;1.50;0.90;;;17.20;94.50;;;;;;6125818;23;20477;-78
2022/07/15 00:45:56;;;;;;;1.43;0.90;;;17.20;94.70;;;;;;6131274;23;20949;-78
2022/07/15 00:48:23;;;;;;;1.47;0.90;;;17.20;94.00;;;;;;6132008;23;20504;-79
2022/07/15 00:50:50;;;;;;;1.47;1.00;;;17.20;94.70;;;;;;6134130;23;20921;-78
2022/07/15 00:53:18;;;;;;;1.50;1.00;;;17.20;94.20;;;;;;6124721;23;20461;-79
2022/07/15 00:55:47;;;;;;;1.50;0.90;;;17.20;93.90;;;;;;6124790;23;20445;-78
2022/07/15 00:58:18;;;;;;;1.50;1.00;;;17.20;94.20;;;;;;6126365;23;20422;-79
2022/07/15 01:00:48;;;;;;;1.50;1.00;;;17.10;94.60;;;;;;6125027;23;20420;-79
2022/07/15 01:03:17;;;;;;;1.50;0.90;;;17.10;94.50;;;;;;6125450;23;20520;-79
2022/07/15 01:05:46;;;;;;;1.47;1.00;;;17.10;94.90;;;;;;6129894;23;20421;-79
2022/07/15 01:08:13;;;;;;;1.50;0.90;;;17.00;94.90;;;;;;6129532;23;20426;-79
2022/07/15 01:10:41;;;;;;;1.43;0.90;;;17.00;94.80;;;;;;6138747;23;20522;-80
2022/07/15 01:13:08;;;;;;;1.50;0.97;;;17.00;94.40;;;;;;6128993;23;20473;-79
2022/07/15 01:15:35;;;;;;;1.50;0.97;;;17.00;94.80;;;;;;6125217;23;20463;-78
2022/07/15 01:18:04;;;;;;;1.47;0.90;;;16.90;94.80;;;;;;6126269;23;20422;-78
2022/07/15 01:20:32;;;;;;;1.50;0.90;;;17.00;95.00;;;;;;6127246;23;20444;-78
2022/07/15 01:23:01;;;;;;;1.50;1.00;;;16.90;95.00;;;;;;6125919;23;20449;-78
2022/07/15 01:25:29;;;;;;;1.47;0.90;;;16.90;95.10;;;;;;6126847;23;20986;-78
2022/07/15 01:28:05;;;;;;;1.43;0.90;;;16.90;95.10;;;;;;6126354;23;20417;-78
2022/07/15 01:30:32;;;;;;;1.47;0.90;;;16.90;95.00;;;;;;6120377;23;20424;-79
2022/07/15 01:33:00;;;;;;;1.47;0.90;;;16.90;94.90;;;;;;6122046;23;20445;-78
2022/07/15 01:35:28;;;;;;;1.50;0.90;;;16.90;94.90;;;;;;6124897;23;20516;-80
2022/07/15 01:37:55;;;;;;;1.47;0.90;;;16.80;95.10;;;;;;6137918;23;21219;-80
2022/07/15 01:40:23;;;;;;;1.50;1.00;;;16.80;95.50;;;;;;6128730;23;20529;-80
2022/07/15 01:42:50;;;;;;;1.43;1.00;;;16.80;95.30;;;;;;6126995;23;20457;-80
2022/07/15 01:45:17;;;;;;;1.40;0.90;;;16.80;95.50;;;;;;6129307;23;20509;-80
2022/07/15 01:47:45;;;;;;;1.47;0.90;;;16.80;95.80;;;;;;6138813;23;20801;-80
2022/07/15 01:50:13;;;;;;;1.50;1.00;;;16.80;95.70;;;;;;6129760;23;20446;-80
2022/07/15 01:52:39;;;;;;;1.47;0.90;;;16.80;95.70;;;;;;6128489;23;20472;-80
2022/07/15 01:55:09;;;;;;;1.43;0.90;;;16.80;96.30;;;;;;6131390;23;20476;-79
2022/07/15 01:57:37;;;;;;;1.43;1.00;;;16.80;96.20;;;;;;6130381;23;20426;-80
2022/07/15 02:00:05;;;;;;;1.50;1.00;;;16.90;96.30;;;;;;6130745;23;20422;-80
2022/07/15 02:02:32;;;;;;;1.50;1.00;;;16.90;96.80;;;;;;6134363;23;20534;-78
2022/07/15 02:04:59;;;;;;;1.47;0.90;;;17.00;97.20;;;;;;6128546;23;20481;-80
2022/07/15 02:07:26;;;;;;;1.47;0.93;;;17.00;97.00;;;;;;6134325;23;20509;-80
2022/07/15 02:09:53;;;;;;;1.43;1.00;;;17.00;96.90;;;;;;6135493;23;20457;-80
2022/07/15 02:12:20;;;;;;;1.43;0.90;;;17.00;96.80;;;;;;6136254;23;20476;-80
2022/07/15 02:14:49;;;;;;;1.50;0.90;;;17.10;97.40;;;;;;6134912;23;20534;-78
2022/07/15 02:17:15;;;;;;;1.50;1.00;;;17.10;97.00;;;;;;6127840;23;20790;-78
2022/07/15 02:19:42;;;;;;;1.50;0.90;;;17.20;96.70;;;;;;6127246;23;20464;-78
2022/07/15 02:22:09;;;;;;;1.47;0.90;;;17.20;97.20;;;;;;6125142;23;21098;-79
2022/07/15 02:24:36;;;;;;;1.50;0.90;;;17.30;96.60;;;;;;6127788;23;20417;-79
2022/07/15 02:27:03;;;;;;;1.47;0.90;;;17.30;96.50;;;;;;6128748;23;20920;-79
2022/07/15 02:29:30;;;;;;;1.47;0.90;;;17.30;96.20;;;;;;6128040;23;20508;-78
2022/07/15 02:31:58;;;;;;;1.50;1.00;;;17.30;96.40;;;;;;6127289;23;20425;-79
2022/07/15 02:34:25;;;;;;;1.50;1.00;;;17.30;96.10;;;;;;6127328;23;20446;-78
2022/07/15 02:36:52;;;;;;;1.47;0.90;;;17.30;96.50;;;;;;6129275;23;20432;-81
2022/07/15 02:39:19;;;;;;;1.47;0.90;;;17.30;95.90;;;;;;6129708;23;20497;-79
2022/07/15 02:41:46;;;;;;;1.47;0.90;;;17.30;96.20;;;;;;6127194;23;20421;-79
2022/07/15 02:44:14;;;;;;;1.50;0.90;;;17.20;95.80;;;;;;6126696;23;20426;-81
2022/07/15 02:46:41;;;;;;;1.47;0.90;;;17.20;95.80;;;;;;6125165;23;20436;-80
2022/07/15 02:49:09;;;;;;;1.47;0.90;;;17.20;95.80;;;;;;6124117;23;20488;-80
2022/07/15 02:51:36;;;;;;;1.43;0.90;;;17.20;95.80;;;;;;6123780;23;20460;-78
2022/07/15 02:54:03;;;;;;;1.47;0.90;;;17.20;95.60;;;;;;6122547;23;20593;-79
2022/07/15 02:56:30;;;;;;;1.47;1.00;;;17.20;95.20;;;;;;6123603;23;20450;-79
2022/07/15 02:58:57;;;;;;;1.50;1.00;;;17.20;95.60;;;;;;6123868;23;20480;-81
2022/07/15 03:01:24;;;;;;;1.43;1.00;;;17.20;95.60;;;;;;6123413;23;20426;-79
2022/07/15 03:03:53;;;;;;;1.40;0.90;;;17.20;95.40;;;;;;6124082;23;20754;-80
2022/07/15 03:06:22;;;;;;;1.50;0.90;;;17.10;95.40;;;;;;6125413;23;20432;-80
2022/07/15 03:08:49;;;;;;;1.47;0.97;;;17.10;95.70;;;;;;6124735;23;20441;-80
2022/07/15 03:11:16;;;;;;;1.47;0.90;;;17.10;95.90;;;;;;6123159;23;20426;-79
2022/07/15 03:13:43;;;;;;;1.50;1.00;;;17.00;96.00;;;;;;6124281;23;20753;-79
2022/07/15 03:16:10;;;;;;;1.50;1.00;;;17.00;95.90;;;;;;6124614;23;20471;-79
2022/07/15 03:18:37;;;;;;;1.40;0.90;;;16.90;96.10;;;;;;6123372;23;20477;-79
2022/07/15 03:21:04;;;;;;;1.50;1.10;;;16.90;95.90;;;;;;6122591;23;20445;-78
2022/07/15 03:23:33;;;;;;;1.43;0.90;;;16.90;96.10;;;;;;6123954;23;20445;-79
2022/07/15 03:26:00;;;;;;;1.47;0.90;;;16.90;96.60;;;;;;6124014;23;20923;-79
2022/07/15 03:28:27;;;;;;;1.47;0.97;;;16.80;97.30;;;;;;6123303;23;20422;-79
2022/07/15 03:30:54;;;;;;;1.47;1.00;;;16.80;96.70;;;;;;6133301;23;20426;-79
2022/07/15 03:33:21;;;;;;;1.47;1.00;;;16.70;97.50;;;;;;6124097;23;20446;-79
2022/07/15 03:35:48;;;;;;;1.47;0.97;;;16.70;97.50;;;;;;6125010;23;20450;-80
2022/07/15 03:38:15;;;;;;;1.50;0.90;;;16.70;97.30;;;;;;6125077;23;20481;-79
2022/07/15 03:40:44;;;;;;;1.43;0.90;;;16.70;98.10;;;;;;6134228;23;20429;-80
2022/07/15 03:43:12;;;;;;;1.47;0.90;;;16.70;97.50;;;;;;6124226;23;20878;-80
2022/07/15 03:45:38;;;;;;;1.47;1.00;;;16.70;97.70;;;;;;6124604;23;20764;-78
2022/07/15 03:48:06;;;;;;;1.50;1.10;;;16.70;97.80;;;;;;6124017;23;20426;-79
2022/07/15 03:50:33;;;;;;;1.43;0.90;;;16.70;98.20;;;;;;6124781;23;20422;-80
2022/07/15 03:53:00;;;;;;;1.43;1.00;;;16.70;97.80;;;;;;6125617;23;20465;-80
2022/07/15 03:55:27;;;;;;;1.47;0.90;;;16.70;98.10;;;;;;6127373;23;20445;-80
2022/07/15 03:57:55;;;;;;;1.50;0.90;;;16.60;98.20;;;;;;6134558;23;20432;-78
2022/07/15 04:00:23;;;;;;;1.50;1.00;;;16.60;97.90;;;;;;6125094;23;20430;-80
2022/07/15 04:02:50;;;;;;;1.43;0.90;;;16.60;98.20;;;;;;6135820;23;20741;-80
2022/07/15 04:05:17;;;;;;;1.43;0.90;;;16.70;98.20;;;;;;6127096;23;20421;-78
2022/07/15 04:07:44;;;;;;;1.43;0.90;;;16.60;98.20;;;;;;6123600;23;20452;-78
2022/07/15 04:10:12;;;;;;;1.47;0.90;;;16.60;98.10;;;;;;6123840;23;20999;-78
2022/07/15 04:12:38;;;;;;;1.50;0.90;;;16.70;97.90;;;;;;6122972;23;20473;-79
2022/07/15 04:15:08;;;;;;;1.40;0.90;;;16.70;97.60;;;;;;6123873;23;20496;-79
2022/07/15 04:17:35;;;;;;;1.47;0.90;;;16.80;97.50;;;;;;6125064;23;20421;-77
2022/07/15 04:20:02;;;;;;;1.50;0.90;;;16.80;97.80;;;;;;6132050;23;20442;-78
2022/07/15 04:22:29;;;;;;;1.50;1.00;;;16.90;98.00;;;;;;6123983;23;20529;-78
2022/07/15 04:24:56;;;;;;;1.47;0.90;;;17.00;97.80;;;;;;6123283;23;20447;-78
2022/07/15 04:27:24;;;;;;;1.43;0.93;;;17.00;97.60;;;;;;6125109;23;20429;-80
2022/07/15 04:29:51;;;;;;;1.47;0.90;;;17.00;97.90;;;;;;6124526;23;20489;-80
2022/07/15 04:32:19;;;;;;;1.40;1.00;;;17.00;97.40;;;;;;6124603;23;20511;-79
2022/07/15 04:34:46;;;;;;;1.43;0.90;;;17.00;97.40;;;;;;6124802;23;20924;-83
2022/07/15 04:37:13;;;;;;;1.40;0.90;;;17.00;97.80;;;;;;6128230;23;20453;-82
2022/07/15 04:39:40;;;;;;;1.43;0.90;;;17.00;97.30;;;;;;6124820;23;20433;-79
2022/07/15 04:42:08;;;;;;;1.47;0.90;;;17.00;98.20;;;;;;6122667;23;20795;-77
2022/07/15 04:44:35;;;;;;;1.43;0.90;;;17.00;97.90;;;;;;6125645;23;20420;-80
2022/07/15 04:47:02;;;;;;;1.50;1.00;;;17.00;97.90;;;;;;6124754;23;20517;-79
2022/07/15 04:52:16;;;;;;;1.47;0.90;;;17.00;97.40;;;;;;6125258;23;20460;-80
2022/07/15 04:54:43;;;;;;;1.47;0.90;;;17.10;97.80;;;;;;6123705;23;20764;-80
2022/07/15 04:57:11;;;;;;;1.50;0.90;;;17.10;97.50;;;;;;6123432;23;20433;-80
2022/07/15 04:59:38;;;;;;;1.47;0.90;;;17.20;97.10;;;;;;6129338;23;20425;-80
2022/07/15 05:02:05;;;;;;;1.50;0.90;;;17.30;97.20;;;;;;6123225;23;20437;-79
2022/07/15 05:04:34;;;;;;;1.50;1.00;;;17.30;96.80;;;;;;6118164;23;20490;-79
2022/07/15 05:07:01;;;;;;;1.50;1.00;;;17.40;97.00;;;;;;6121900;23;20817;-80
2022/07/15 05:09:28;;;;;;;1.50;0.90;;;17.50;96.80;;;;;;6121866;23;20953;-80
2022/07/15 05:11:55;;;;;;;1.50;0.90;;;17.60;96.70;;;;;;6119025;23;20430;-78
2022/07/15 05:14:22;;;;;;;1.50;0.90;;;17.60;96.00;;;;;;6119149;23;20422;-79
2022/07/15 05:16:50;;;;;;;1.40;0.90;;;17.70;95.90;;;;;;6122161;23;20841;-81
2022/07/15 05:19:17;;;;;;;1.43;0.90;;;17.80;95.50;;;;;;6124103;23;20513;-80
2022/07/15 05:21:46;;;;;;;1.43;0.90;;;17.90;95.00;;;;;;6122668;23;20429;-80
2022/07/15 05:24:13;;;;;;;1.47;1.00;;;18.00;94.80;;;;;;6131517;23;20900;-80
2022/07/15 05:26:40;;;;;;;1.47;0.90;;;18.10;94.70;;;;;;6122817;23;20418;-80
2022/07/15 05:29:07;;;;;;;1.40;0.90;;;18.10;94.40;;;;;;6121138;23;20426;-80
2022/07/15 05:31:34;;;;;;;1.47;0.90;;;18.10;94.70;;;;;;6120828;23;20427;-80
2022/07/15 05:34:01;;;;;;;1.47;0.90;;;18.20;94.70;;;;;;6121629;23;20450;-80
2022/07/15 05:36:28;;;;;;;1.47;0.90;;;18.30;94.00;;;;;;6120602;23;20454;-79
2022/07/15 05:38:57;;;;;;;1.47;0.90;;;18.30;94.80;;;;;;6122552;23;20432;-79
2022/07/15 05:41:24;;;;;;;1.47;0.90;;;18.40;94.60;;;;;;6120469;23;20456;-80
2022/07/15 05:43:51;;;;;;;1.50;0.90;;;18.50;93.50;;;;;;6120198;23;20792;-78
2022/07/15 05:46:18;;;;;;;1.43;0.90;;;18.60;92.70;;;;;;6120031;23;20425;-80
2022/07/15 05:48:45;;;;;;;1.50;0.90;;;18.60;92.70;;;;;;6126217;23;20480;-79
2022/07/15 05:51:14;;;;;;;1.50;1.00;;;18.50;92.90;;;;;;6121636;23;20516;-79
2022/07/15 05:53:41;;;;;;;1.43;0.90;;;18.50;93.50;;;;;;6130783;23;20434;-80
2022/07/15 05:56:10;;;;;;;1.43;0.90;;;18.60;93.20;;;;;;6130773;23;20452;-79
2022/07/15 05:58:38;;;;;;;1.40;0.90;;;18.60;92.70;;;;;;6121401;23;20793;-78
2022/07/15 06:01:05;;;;;;;1.47;0.90;;;18.70;92.80;;;;;;6120593;23;20924;-78
2022/07/15 06:03:32;;;;;;;1.50;1.00;;;18.70;92.40;;;;;;6118998;23;20452;-78
2022/07/15 06:05:59;;;;;;;1.47;0.90;;;18.80;92.10;;;;;;6119210;23;20458;-79
2022/07/15 06:08:26;;;;;;;1.40;0.90;;;18.80;92.20;;;;;;6119025;23;20425;-79
2022/07/15 06:10:53;;;;;;;1.47;0.90;;;18.80;91.90;;;;;;6119800;23;20633;-78
2022/07/15 06:13:22;;;;;;;1.47;0.90;;;18.70;91.90;;;;;;6119026;23;20451;-79
2022/07/15 06:15:49;;;;;;;1.43;0.87;;;18.70;91.90;;;;;;6119125;23;20445;-79
2022/07/15 06:18:18;;;;;;;1.50;0.90;;;18.80;92.50;;;;;;6117025;23;20430;-81
2022/07/15 06:20:45;;;;;;;1.43;0.87;;;18.80;91.70;;;;;;6119545;23;20425;-81
2022/07/15 06:23:14;;;;;;;1.43;0.90;;;18.80;92.20;;;;;;6125172;23;20446;-80
2022/07/15 06:25:42;;;;;;;1.47;0.90;;;18.90;92.70;;;;;;6121355;23;21000;-81
2022/07/15 06:28:09;;;;;;;1.43;0.90;;;19.20;92.60;;;;;;6124082;23;20425;-81
2022/07/15 06:30:37;;;;;;;1.47;0.90;;;19.60;90.80;;;;;;6123290;23;20447;-80
2022/07/15 06:33:04;;;;;;;1.43;0.90;;;19.80;89.50;;;;;;6118425;23;20624;-80
2022/07/15 06:35:33;;;;;;;1.47;0.90;;;20.00;87.90;;;;;;6116280;23;20504;-80
2022/07/15 06:38:01;;;;;;;1.40;0.90;;;20.10;86.90;;;;;;6115793;23;20425;-81
2022/07/15 06:40:28;;;;;;;1.50;0.90;;;20.00;87.00;;;;;;6117044;23;20465;-80
2022/07/15 06:42:55;;;;;;;1.43;0.90;;;19.90;87.40;;;;;;6121157;23;20873;-82
2022/07/15 06:45:22;;;;;;;1.43;0.90;;;19.90;88.10;;;;;;6121973;23;20771;-80
2022/07/15 06:47:51;;;;;;;1.50;0.90;;;19.90;87.20;;;;;;6116998;23;20911;-80
2022/07/15 06:50:20;;;;;;;1.47;0.90;;;19.90;87.00;;;;;;6120268;23;20437;-80
2022/07/15 06:52:48;;;;;;;1.50;0.90;;;19.80;86.80;;;;;;6128922;23;20437;-81
2022/07/15 06:55:15;;;;;;;1.47;0.90;;;19.70;88.30;;;;;;6123028;23;20436;-81
2022/07/15 06:57:42;;;;;;;1.40;0.90;;;19.90;87.40;;;;;;6125718;23;20450;-81
2022/07/15 07:00:14;;;;;;;1.47;0.90;;;20.20;87.30;;;;;;6127115;23;20429;-81
2022/07/15 07:02:41;;;;;;;1.43;0.90;;;20.50;84.90;;;;;;6126419;23;20441;-81
2022/07/15 07:05:13;;;;;;;1.50;0.90;;;20.70;85.30;;;;;;6127428;23;20500;-80
2022/07/15 07:07:40;;;;;;;1.47;0.90;;;21.10;84.00;;;;;;6125354;23;20406;-80
2022/07/15 07:10:07;;;;;;;1.50;0.90;;;21.50;81.90;;;;;;6126470;23;20428;-80
2022/07/15 07:12:34;;;;;;;1.50;0.90;;;21.80;81.00;;;;;;6127872;23;20480;-81
2022/07/15 07:15:02;;;;;;;1.47;0.90;;;22.10;79.70;;;;;;6128105;23;20426;-81
2022/07/15 07:17:30;;;;;;;1.50;0.90;;;22.20;76.70;;;;;;6128143;23;20501;-81
2022/07/15 07:19:57;;;;;;;1.50;0.90;;;22.20;76.90;;;;;;6128761;23;20478;-80
2022/07/15 07:22:26;;;;;;;1.50;0.80;;;22.30;76.80;;;;;;6127003;23;20477;-78
2022/07/15 07:24:54;;;;;;;1.43;0.87;;;22.30;75.50;;;;;;6125484;23;20457;-80
2022/07/15 07:27:21;;;;;;;1.47;0.80;;;22.30;76.70;;;;;;6125364;23;20422;-81
2022/07/15 07:29:48;;;;;;;1.50;0.90;;;22.30;77.70;;;;;;6128812;23;20425;-82
2022/07/15 07:32:17;;;;;;;1.47;0.80;;;22.60;76.80;;;;;;6126544;23;20445;-80
2022/07/15 07:37:49;;;;;;;1.50;0.90;;;23.40;74.90;;;;;;6133586;23;20524;-81
2022/07/15 07:40:17;;;;;;;1.50;0.80;;;23.90;74.30;;;;;;6129223;23;20484;-80
2022/07/15 07:42:45;;;;;;;1.50;0.90;;;24.30;73.40;;;;;;6126188;23;20468;-79
2022/07/15 07:45:12;;;;;;;1.43;0.90;;;24.50;72.40;;;;;;6142179;23;20429;-82
2022/07/15 07:47:41;;;;;;;1.50;0.90;;;24.70;71.00;;;;;;6132247;23;20421;-80
2022/07/15 07:50:11;;;;;;;1.50;0.90;;;24.80;70.20;;;;;;6128042;23;20456;-80
2022/07/15 07:52:41;;;;;;;1.50;0.90;;;24.80;70.00;;;;;;6126361;23;20465;-80
2022/07/15 07:55:10;;;;;;;1.40;0.90;;;24.50;69.60;;;;;;6128048;23;20434;-80
2022/07/15 07:58:17;;;;;;;1.47;0.90;;;24.20;69.80;;;;;;6131588;23;20477;-81
2022/07/15 08:00:45;;;;;;;1.53;1.00;;;23.80;69.70;;;;;;6123755;23;20974;-80
2022/07/15 08:03:13;;;;;;;1.47;0.80;;;23.40;71.20;;;;;;6123908;23;20434;-80
2022/07/15 08:05:43;;;;;;;1.50;0.83;;;23.10;71.30;;;;;;6133739;23;20425;-78
2022/07/15 08:08:13;;;;;;;1.50;0.87;;;22.90;72.10;;;;;;6123849;23;20490;-81
2022/07/15 08:10:42;;;;;;;1.47;0.83;;;22.90;72.20;;;;;;6123439;23;20417;-81
2022/07/15 08:13:10;;;;;;;1.40;0.80;;;23.10;71.20;;;;;;6122854;23;20508;-81
2022/07/15 08:15:37;;;;;;;1.47;0.90;;;23.40;70.60;;;;;;6122439;23;20418;-79
2022/07/15 08:18:05;;;;;;;1.47;0.90;;;23.80;69.70;;;;;;6123982;23;20480;-79
2022/07/15 08:20:33;;;;;;;1.47;0.80;;;24.10;70.30;;;;;;6123903;23;20539;-79
2022/07/15 08:23:00;;;;;;;1.50;0.90;;;24.50;68.80;;;;;;6123905;23;20964;-79
2022/07/15 08:25:29;;;;;;;1.50;0.90;;;24.90;66.90;;;;;;6134851;23;20425;-79
2022/07/15 08:27:58;;;;;;;1.47;0.90;;;25.10;68.30;;;;;;6124506;23;20432;-79
2022/07/15 08:30:26;;;;;;;1.47;0.80;;;25.30;67.40;;;;;;6123961;23;20432;-79
2022/07/15 08:32:54;;;;;;;1.50;0.80;;;25.40;67.50;;;;;;6133495;23;20459;-79
2022/07/15 08:35:21;;;;;;;1.50;0.90;;;25.50;66.70;;;;;;6124425;23;20453;-80
2022/07/15 08:37:59;;;;;;;1.43;0.80;;;25.50;67.20;;;;;;6125934;23;20520;-79
2022/07/15 08:40:28;;;;;;;1.47;0.80;;;25.50;66.80;;;;;;6124360;23;20489;-80
2022/07/15 08:42:55;;;;;;;1.47;0.80;;;25.50;67.00;;;;;;6133387;23;20464;-78
2022/07/15 08:45:23;;;;;;;1.43;0.80;;;25.50;66.20;;;;;;6123188;23;20520;-79
2022/07/15 08:47:53;;;;;;;1.50;0.80;;;25.60;66.20;;;;;;6125115;23;20417;-80
2022/07/15 08:50:20;;;;;;;1.47;0.80;;;25.60;66.80;;;;;;6123747;23;20472;-78
2022/07/15 08:52:48;;;;;;;1.40;0.83;;;25.60;66.60;;;;;;6123614;23;20448;-78
2022/07/15 08:55:27;;;;;;;1.43;0.80;;;25.50;66.40;;;;;;6124384;23;20457;-80
2022/07/15 08:57:54;;;;;;;1.50;0.80;;;25.30;66.70;;;;;;6123494;23;20488;-80
2022/07/15 09:00:28;;;;;;;1.50;0.87;;;24.90;66.80;;;;;;6124178;23;20907;-79
2022/07/15 09:02:56;;;;;;;1.47;0.80;;;24.70;67.00;;;;;;6122718;23;20532;-79
2022/07/15 09:05:26;;;;;;;1.47;0.80;;;24.70;68.10;;;;;;6124108;23;20428;-79
2022/07/15 09:07:56;;;;;;;1.43;0.80;;;24.60;67.10;;;;;;6124265;23;20737;-79
2022/07/15 09:10:26;;;;;;;1.47;0.90;;;24.40;66.90;;;;;;6122672;23;20452;-79
2022/07/15 09:12:55;;;;;;;1.43;0.80;;;24.30;68.30;;;;;;6123911;23;20561;-79
2022/07/15 09:15:36;;;;;;;1.43;0.87;;;24.20;67.40;;;;;;6122210;23;20422;-79
2022/07/15 09:18:07;;;;;;;1.47;0.80;;;24.10;67.00;;;;;;6124740;23;20471;-80
2022/07/15 09:20:35;;;;;;;1.43;0.80;;;24.00;68.30;;;;;;6124237;23;21046;-78
2022/07/15 09:23:03;;;;;;;1.47;0.83;;;24.20;68.20;;;;;;6122890;23;20943;-79
2022/07/15 09:25:33;;;;;;;1.50;1.00;;;24.50;66.90;;;;;;6135830;23;20429;-80
2022/07/15 09:28:03;;;;;;;1.47;0.80;;;24.60;66.90;;;;;;6125602;23;20427;-80
2022/07/15 09:33:36;;;;;;;1.47;0.90;;;24.90;65.90;;;;;;6128483;23;21023;-81
2022/07/15 09:36:14;;;;;;;1.47;0.90;;;24.90;66.90;;;;;;6125457;23;20421;-80
2022/07/15 09:38:44;;;;;;;1.47;0.90;;;24.50;67.50;;;;;;6124698;23;20875;-78
2022/07/15 09:41:15;;;;;;;1.60;1.10;;;24.30;68.60;;;;;;6122454;23;20512;-79
2022/07/15 09:43:45;;;;;;;1.43;0.80;;;24.10;68.40;;;;;;6121519;23;21128;-80
2022/07/15 09:46:12;;;;;;;1.47;0.90;;;23.80;68.60;;;;;;6124021;23;20428;-80
2022/07/15 09:48:45;;;;;;;1.43;0.80;;;23.70;69.10;;;;;;6122171;23;20916;-78
2022/07/15 09:51:17;;;;;;;1.40;0.90;;;23.50;68.00;;;;;;6122824;23;20758;-79
2022/07/15 09:53:44;;;;;;;1.47;0.80;;;23.40;69.10;;;;;;6126931;23;20481;-79
2022/07/15 09:56:14;;;;;;;1.43;0.80;;;23.50;69.30;;;;;;6128552;23;20425;-81
2022/07/15 09:58:43;;;;;;;1.47;0.80;;;23.80;68.50;;;;;;6125155;23;20426;-79
2022/07/15 10:01:11;;;;;;;1.47;0.80;;;24.30;66.90;;;;;;6121805;23;20513;-79
2022/07/15 10:03:39;;;;;;;1.50;0.90;;;24.80;66.70;;;;;;6132166;23;20468;-79
2022/07/15 10:06:08;;;;;;;1.40;0.80;;;25.40;64.40;;;;;;6122825;23;20466;-77
2022/07/15 10:08:36;;;;;;;1.50;0.90;;;25.90;65.00;;;;;;6127293;23;20641;-81
2022/07/15 10:11:08;;;;;;;1.47;0.80;;;26.10;63.70;;;;;;6122760;23;20422;-79
2022/07/15 10:13:57;;;;;;;1.40;0.80;;;26.30;63.70;;;;;;6124500;23;20502;-79
2022/07/15 10:16:54;;;;;;;1.43;0.80;;;26.10;63.10;;;;;;6126746;23;20421;-78
2022/07/15 10:19:31;;;;;;;1.43;0.83;;;25.90;63.70;;;;;;6126786;23;20406;-79
2022/07/15 10:22:12;;;;;;;1.47;0.80;;;25.70;64.00;;;;;;6126110;23;20401;-78
2022/07/15 10:24:52;;;;;;;1.47;0.90;;;25.50;63.30;;;;;;6127305;23;20927;-80
2022/07/15 10:27:37;;;;;;;1.50;0.90;;;25.20;64.50;;;;;;6124455;23;20561;-80
2022/07/15 10:30:07;;;;;;;1.47;0.80;;;25.10;63.70;;;;;;6126977;23;20440;-81
2022/07/15 10:33:07;;;;;;;1.50;0.80;;;25.40;64.10;;;;;;6126491;23;20473;-79
2022/07/15 10:35:38;;;;;;;1.43;0.80;;;26.00;63.50;;;;;;6130083;23;20754;-81
2022/07/15 10:38:25;;;;;;;1.40;0.80;;;26.70;64.00;;;;;;6125937;23;20472;-80
2022/07/15 10:41:06;;;;;;;1.47;0.80;;;27.20;61.30;;;;;;6134240;23;20435;-79
2022/07/15 10:43:42;;;;;;;1.40;0.80;;;27.60;59.10;;;;;;6125394;23;20507;-79
2022/07/15 10:46:23;;;;;;;1.40;0.80;;;27.70;59.10;;;;;;6127337;23;20974;-79
2022/07/15 10:49:09;;;;;;;1.50;0.80;;;27.60;58.20;;;;;;6126939;23;20459;-82
2022/07/15 10:51:47;;;;;;;1.40;0.80;;;27.20;60.20;;;;;;6127090;23;20471;-80
2022/07/15 10:54:42;;;;;;;1.47;0.80;;;26.70;60.00;;;;;;6137278;23;20488;-80
2022/07/15 10:57:10;;;;;;;1.40;0.80;;;26.50;60.80;;;;;;6126399;23;20648;-81
2022/07/15 10:59:41;;;;;;;1.50;0.80;;;26.60;61.60;;;;;;6123139;23;20421;-78
2022/07/15 11:02:23;;;;;;;1.40;0.80;;;26.70;60.70;;;;;;6127369;23;20481;-81
2022/07/15 11:04:52;;;;;;;1.47;0.80;;;26.70;61.70;;;;;;6138623;23;20420;-80
2022/07/15 11:07:34;;;;;;;1.40;0.90;;;26.60;61.70;;;;;;6128055;23;20787;-78
2022/07/15 11:10:18;;;;;;;1.47;0.80;;;26.60;60.20;;;;;;6125752;23;20803;-79
2022/07/15 11:13:05;;;;;;;1.50;0.80;;;26.50;61.70;;;;;;6125843;23;20449;-79
2022/07/15 11:15:33;;;;;;;1.43;0.90;;;26.70;60.30;;;;;;6125046;23;20428;-79
2022/07/15 11:18:01;;;;;;;1.43;0.90;;;26.80;60.50;;;;;;6125831;23;20544;-79
2022/07/15 11:20:34;;;;;;;1.50;0.80;;;26.80;61.80;;;;;;6124529;23;20508;-79
2022/07/15 11:23:06;;;;;;;1.40;0.80;;;26.90;60.50;;;;;;6123862;23;20516;-79
2022/07/15 11:25:37;;;;;;;1.47;0.90;;;26.80;61.10;;;;;;6128539;23;20418;-78
2022/07/15 11:28:09;;;;;;;1.43;0.80;;;26.90;61.10;;;;;;6126843;23;20897;-80
2022/07/15 11:30:40;;;;;;;1.47;0.90;;;27.20;60.90;;;;;;6134342;23;20441;-80
2022/07/15 11:33:08;;;;;;;1.43;0.80;;;27.60;61.30;;;;;;6125996;23;20441;-78
2022/07/15 11:35:49;;;;;;;1.43;0.80;;;28.00;59.80;;;;;;6125974;23;20766;-80
2022/07/15 11:38:16;;;;;;;1.47;0.80;;;28.20;59.10;;;;;;6130244;23;20535;-80
2022/07/15 11:46:18;;;;;;;1.43;0.80;;;29.20;57.70;;;;;;6137756;23;20397;-81
2022/07/15 11:48:45;;;;;;;1.47;0.80;;;28.90;56.60;;;;;;6126118;23;20447;-79
2022/07/15 11:51:13;;;;;;;1.47;0.80;;;28.70;58.20;;;;;;6126958;23;20418;-79
2022/07/15 11:53:42;;;;;;;1.43;0.80;;;28.70;58.00;;;;;;6124694;23;21139;-80
2022/07/15 11:56:13;;;;;;;1.40;0.80;;;28.80;59.70;;;;;;6134300;23;20426;-80
2022/07/15 11:58:43;;;;;;;1.47;0.90;;;29.10;58.30;;;;;;6122788;23;20452;-79
2022/07/15 12:01:12;;;;;;;1.40;0.80;;;29.30;57.90;;;;;;6124630;23;20496;-80
2022/07/15 12:03:42;;;;;;;1.47;0.80;;;29.50;57.20;;;;;;6137314;23;20490;-80
2022/07/15 12:09:46;;;;;;;1.43;0.80;;;29.90;57.00;;;;;;6104728;23;20487;-80
2022/07/15 12:13:04;;;;;;;;;;;;;;;;;;;;;
2022/07/15 12:15:32;;;;;;;1.43;0.80;;;29.20;56.20;;;;;;6143356;23;20480;-81
2022/07/15 12:18:02;;;;;;;1.43;0.80;;;29.00;57.30;;;;;;6125554;23;20508;-81
2022/07/15 12:20:32;;;;;;;1.43;0.80;;;29.00;56.90;;;;;;6126526;23;20414;-81
2022/07/15 12:23:07;;;;;;;1.43;0.80;;;29.00;57.60;;;;;;6124580;23;21018;-81
2022/07/15 12:25:38;;;;;;;1.47;0.80;;;28.90;57.30;;;;;;6127139;23;20424;-82
2022/07/15 12:28:07;;;;;;;1.47;0.80;;;28.70;57.50;;;;;;6126822;23;20429;-80
2022/07/15 12:30:37;;;;;;;1.47;0.80;;;28.30;58.20;;;;;;6125603;23;20424;-80
2022/07/15 12:33:21;;;;;;;1.40;0.90;;;28.00;58.60;;;;;;6140100;23;20451;-81
2022/07/15 12:35:49;;;;;;;1.43;0.80;;;27.80;60.00;;;;;;6129141;23;20406;-80
2022/07/15 12:38:36;;;;;;;1.47;0.80;;;27.80;58.20;;;;;;6124063;23;20771;-81
2022/07/15 12:41:06;;;;;;;1.47;0.80;;;27.50;58.60;;;;;;6127956;23;20452;-80
2022/07/15 12:43:53;;;;;;;1.47;0.80;;;27.30;59.70;;;;;;6124530;23;20475;-79
2022/07/15 12:46:57;;;;;;;1.43;0.80;;;27.40;59.30;;;;;;6128105;23;20464;-82
2022/07/15 12:49:45;;;;;;;1.40;0.80;;;27.60;58.50;;;;;;6112862;23;20516;-82
2022/07/15 12:52:21;;;;;;;1.40;0.80;;;27.90;59.20;;;;;;6121601;23;20817;-81
2022/07/15 12:54:49;;;;;;;1.40;0.80;;;27.90;59.00;;;;;;6124676;23;20509;-81
2022/07/15 12:57:29;;;;;;;1.47;0.80;;;28.00;58.60;;;;;;6123855;23;20425;-81
2022/07/15 12:59:59;;;;;;;1.40;0.80;;;27.90;58.00;;;;;;6118338;23;20409;-79
2022/07/15 13:02:28;;;;;;;1.40;0.90;;;27.80;58.30;;;;;;6122607;23;20445;-80
2022/07/15 13:04:55;;;;;;;1.43;0.80;;;27.60;57.90;;;;;;6122468;23;21014;-80
2022/07/15 13:07:23;;;;;;;1.50;0.80;;;27.30;58.50;;;;;;6123800;23;20421;-83
2022/07/15 13:09:51;;;;;;;1.47;0.87;;;27.20;59.60;;;;;;6119304;23;20452;-79
2022/07/15 13:12:18;;;;;;;1.43;0.80;;;27.10;58.40;;;;;;6119227;23;20455;-79
2022/07/15 13:14:45;;;;;;;1.47;0.80;;;27.10;58.50;;;;;;6123608;23;20453;-80
2022/07/15 13:17:14;;;;;;;1.40;0.80;;;27.30;60.20;;;;;;6122287;23;20424;-81
2022/07/15 13:19:41;;;;;;;1.40;0.80;;;27.60;59.20;;;;;;6121850;23;20425;-81